This is the latest recevied weather packets stored in our database for station/object KK6LZB. If no packets are shown the sender has not sent any weather packets the latest 10 day(s).
| Time | Temp. | Humidity | Pressure | Rain* | Wind** | Luminosity | Snow |
|---|---|---|---|---|---|---|---|
| 1777767041 | 22.78° C | 71% | 1013.1 hPa | 0 mm | - | 239 W/m² | - |
| 1777766738 | 23.33° C | 67% | 1013 hPa | 0 mm | - | 253 W/m² | - |
| 1777766435 | 22.78° C | 69% | 1013 hPa | 0 mm | - | 265 W/m² | - |
| 1777766131 | 22.78° C | 68% | 1013 hPa | 0 mm | - | 278 W/m² | - |
| 1777765829 | 23.33° C | 67% | 1012.9 hPa | 0 mm | - | 292 W/m² | - |
| 1777765525 | 23.33° C | 68% | 1013.1 hPa | 0 mm | - | 306 W/m² | - |
| 1777765223 | 23.33° C | 68% | 1012.9 hPa | 0 mm | - | 321 W/m² | - |
| 1777764918 | 23.33° C | 67% | 1013.1 hPa | 0 mm | - | 335 W/m² | - |
| 1777764616 | 22.22° C | 71% | 1013 hPa | 0 mm | - | 346 W/m² | - |
| 1777764311 | 23.89° C | 69% | 1013 hPa | 0 mm | - | 360 W/m² | - |
| 1777764009 | 23.89° C | 65% | 1013 hPa | 0 mm | - | 375 W/m² | - |
| 1777763706 | 23.33° C | 67% | 1013.3 hPa | 0 mm | - | 390 W/m² | - |
| 1777763404 | 22.78° C | 70% | 1013.1 hPa | 0 mm | - | 402 W/m² | - |
| 1777763102 | 23.33° C | 69% | 1013.1 hPa | 0 mm | - | 417 W/m² | - |
| 1777762800 | 21.67° C | 74% | 1013.2 hPa | 0 mm | - | 430 W/m² | - |
| 1777762495 | 23.89° C | 67% | 1013.3 hPa | 0 mm | - | 443 W/m² | - |
| 1777762192 | 23.33° C | 69% | 1013.3 hPa | 0 mm | - | 458 W/m² | - |
| 1777761888 | 22.78° C | 70% | 1013.5 hPa | 0 mm | - | 472 W/m² | - |
| 1777761585 | 23.33° C | 70% | 1013.6 hPa | 0 mm | - | 484 W/m² | - |
| 1777761283 | 23.33° C | 69% | 1013.6 hPa | 0 mm | - | 495 W/m² | - |
| 1777760981 | 22.78° C | 72% | 1013.7 hPa | 0 mm | - | 509 W/m² | - |
| 1777760679 | 23.89° C | 69% | 1013.8 hPa | 0 mm | - | 521 W/m² | - |
| 1777760374 | 23.33° C | 70% | 1013.9 hPa | 0 mm | - | 530 W/m² | - |
| 1777760071 | 23.33° C | 72% | 1014.1 hPa | 0 mm | - | 546 W/m² | - |
| 1777759768 | 23.33° C | 70% | 1014.1 hPa | 0 mm | - | 559 W/m² | - |
* Rain latest hour (hover to see other rain measurements)
** Current wind speed in m/s (hover to see current wind gust speed)